createdAt,value
2023-01-13T00:00:30.621Z,-12.18
2023-01-13T00:02:33.546Z,-12.25
2023-01-13T00:04:36.454Z,-12.21
2023-01-13T00:06:39.253Z,-12.27
2023-01-13T00:08:42.117Z,-12.32
2023-01-13T00:10:48.510Z,-12.30
2023-01-13T00:12:51.665Z,-12.35
2023-01-13T00:14:54.392Z,-12.39
2023-01-13T00:16:57.116Z,-12.43
2023-01-13T00:18:59.814Z,-12.50
2023-01-13T00:21:07.225Z,-12.49
2023-01-13T00:23:09.930Z,-12.54
2023-01-13T00:25:12.934Z,-12.64
2023-01-13T00:27:15.663Z,-12.68
2023-01-13T00:29:18.485Z,-12.73
2023-01-13T00:31:21.810Z,-12.74
2023-01-13T00:33:25.553Z,-12.79
2023-01-13T00:35:28.241Z,-12.79
2023-01-13T00:37:31.048Z,-12.81
2023-01-13T00:39:33.778Z,-12.90
2023-01-13T00:41:55.117Z,-12.87
2023-01-13T00:43:57.978Z,-12.96
2023-01-13T00:46:01.092Z,-13.01
2023-01-13T00:48:03.944Z,-13.03
2023-01-13T00:50:06.829Z,-13.00
2023-01-13T00:52:09.576Z,-12.96
2023-01-13T00:54:12.336Z,-12.98
2023-01-13T00:56:16.863Z,-13.00
2023-01-13T00:58:20.856Z,-13.09
2023-01-13T01:00:23.669Z,-13.10
2023-01-13T01:02:26.459Z,-13.13
2023-01-13T01:04:29.230Z,-13.17
2023-01-13T01:06:32.062Z,-13.20
2023-01-13T01:08:36.024Z,-13.31
2023-01-13T01:10:38.749Z,-13.39
2023-01-13T01:12:41.425Z,-13.46
2023-01-13T01:14:44.231Z,-13.43
2023-01-13T01:16:47.023Z,-13.50
2023-01-13T01:18:51.505Z,-13.57
2023-01-13T01:20:54.262Z,-13.56
2023-01-13T01:22:56.911Z,-13.60
2023-01-13T01:24:59.962Z,-13.66
2023-01-13T01:27:02.664Z,-13.65
2023-01-13T01:29:05.331Z,-13.66
2023-01-13T01:31:13.386Z,-13.65
2023-01-13T01:33:17.065Z,-13.74
2023-01-13T01:35:19.712Z,-13.79
2023-01-13T01:37:22.457Z,-13.76
2023-01-13T01:39:25.350Z,-13.73
2023-01-13T01:41:30.632Z,-13.78
2023-01-13T01:44:00.151Z,-13.79
2023-01-13T01:46:03.641Z,-13.76
2023-01-13T01:48:07.429Z,-13.79
2023-01-13T01:50:10.972Z,-13.81
2023-01-13T01:52:36.291Z,-13.89
2023-01-13T01:54:47.076Z,-13.90
2023-01-13T01:56:50.745Z,-13.85
2023-01-13T01:58:54.469Z,-13.90
2023-01-13T02:00:57.265Z,-13.94
2023-01-13T02:03:01.690Z,-13.95
2023-01-13T02:05:04.889Z,-13.98
2023-01-13T02:07:08.446Z,-13.94
2023-01-13T02:09:11.921Z,-13.88
2023-01-13T02:11:50.283Z,-13.97
2023-01-13T02:13:53.388Z,-14.05
2023-01-13T02:16:17.565Z,-14.04
2023-01-13T02:18:38.835Z,-14.06
2023-01-13T02:20:50.548Z,-14.09
2023-01-13T02:23:34.372Z,-14.05
2023-01-13T02:26:00.952Z,-14.00
2023-01-13T02:28:27.639Z,-14.01
2023-01-13T02:31:04.721Z,-13.96
2023-01-13T02:33:36.281Z,-13.92
2023-01-13T02:36:11.437Z,-13.90
2023-01-13T02:38:16.859Z,-13.90
2023-01-13T02:40:56.963Z,-13.90
2023-01-13T02:43:37.117Z,-13.86
2023-01-13T02:45:48.171Z,-13.86
2023-01-13T02:47:55.974Z,-13.85
2023-01-13T02:50:13.429Z,-13.82
2023-01-13T02:52:36.915Z,-13.84
2023-01-13T02:54:44.823Z,-13.87
2023-01-13T02:56:53.549Z,-13.86
2023-01-13T02:58:58.174Z,-13.79
2023-01-13T03:01:01.104Z,-13.78
2023-01-13T03:03:04.376Z,-13.75
2023-01-13T03:05:07.626Z,-13.76
2023-01-13T03:07:38.311Z,-13.78
2023-01-13T03:09:50.842Z,-13.72
2023-01-13T03:12:03.943Z,-13.69
2023-01-13T03:14:30.579Z,-13.69
2023-01-13T03:17:10.649Z,-13.70
2023-01-13T03:19:39.731Z,-13.73
2023-01-13T03:22:11.729Z,-13.77
2023-01-13T03:24:23.005Z,-13.72
2023-01-13T03:26:52.182Z,-13.83
2023-01-13T03:29:09.384Z,-13.87
2023-01-13T03:31:22.493Z,-13.94
2023-01-13T03:33:34.685Z,-13.90
2023-01-13T03:35:42.757Z,-13.95
2023-01-13T03:37:52.743Z,-13.98
2023-01-13T03:40:02.893Z,-13.96
2023-01-13T03:42:15.722Z,-14.09
2023-01-13T03:44:25.494Z,-14.05
2023-01-13T03:46:43.585Z,-14.14
2023-01-13T03:48:47.010Z,-14.17
2023-01-13T03:50:52.596Z,-14.20
2023-01-13T03:53:02.981Z,-14.18
2023-01-13T03:55:13.517Z,-14.18
2023-01-13T03:57:19.559Z,-14.10
2023-01-13T03:59:28.402Z,-14.14
2023-01-13T04:01:54.871Z,-14.16
2023-01-13T04:04:05.249Z,-14.11
2023-01-13T04:06:45.821Z,-14.16
2023-01-13T04:09:03.454Z,-14.13
2023-01-13T04:11:12.255Z,-14.18
2023-01-13T04:13:22.386Z,-14.10
2023-01-13T04:15:28.409Z,-14.09
2023-01-13T04:17:32.228Z,-13.99
2023-01-13T04:19:34.952Z,-13.99
2023-01-13T04:21:37.787Z,-13.90
2023-01-13T04:23:40.547Z,-13.83
2023-01-13T04:25:44.133Z,-13.78
2023-01-13T04:27:46.788Z,-13.75
2023-01-13T04:29:49.522Z,-13.75
2023-01-13T04:31:52.249Z,-13.72
2023-01-13T04:33:55.033Z,-13.69
2023-01-13T04:35:57.687Z,-13.65
2023-01-13T04:38:06.113Z,-13.63
2023-01-13T04:40:09.687Z,-13.64
2023-01-13T04:42:13.860Z,-13.71
2023-01-13T04:44:16.575Z,-13.66
2023-01-13T04:46:19.389Z,-13.71
2023-01-13T04:48:22.179Z,-13.74
2023-01-13T04:50:25.367Z,-13.72
2023-01-13T04:52:28.129Z,-13.71
2023-01-13T04:54:30.794Z,-13.67
2023-01-13T04:56:33.540Z,-13.72
2023-01-13T04:58:36.257Z,-13.78
2023-01-13T05:00:39.165Z,-13.73
2023-01-13T05:02:42.061Z,-13.77
2023-01-13T05:04:44.775Z,-13.87
2023-01-13T05:06:47.535Z,-13.77
2023-01-13T05:08:51.305Z,-13.72
2023-01-13T05:10:53.996Z,-13.76
2023-01-13T05:13:15.848Z,-13.71
2023-01-13T05:15:37.570Z,-13.70
2023-01-13T05:17:40.906Z,-13.74
2023-01-13T05:19:43.569Z,-13.69
2023-01-13T05:22:04.856Z,-13.65
2023-01-13T05:24:28.266Z,-13.60
2023-01-13T05:26:31.072Z,-13.62
2023-01-13T05:28:35.255Z,-13.66
2023-01-13T05:30:43.986Z,-13.63
2023-01-13T05:32:46.793Z,-13.62
2023-01-13T05:34:49.977Z,-13.54
2023-01-13T05:36:52.653Z,-13.55
2023-01-13T05:38:55.258Z,-13.54
2023-01-13T05:41:18.802Z,-13.60
2023-01-13T05:43:23.068Z,-13.68
2023-01-13T05:45:26.094Z,-13.62
2023-01-13T05:47:28.784Z,-13.56
2023-01-13T05:49:31.421Z,-13.67
2023-01-13T05:51:34.121Z,-13.59
2023-01-13T05:53:37.046Z,-13.62
2023-01-13T05:55:41.248Z,-13.65
2023-01-13T05:57:43.985Z,-13.68
2023-01-13T05:59:46.684Z,-13.63
2023-01-13T06:01:49.422Z,-13.62
2023-01-13T06:03:52.123Z,-13.70
2023-01-13T06:05:59.052Z,-13.63
2023-01-13T06:08:04.232Z,-13.65
2023-01-13T06:10:07.801Z,-13.57
2023-01-13T06:12:14.292Z,-13.53
2023-01-13T06:14:16.945Z,-13.47
2023-01-13T06:16:19.736Z,-13.43
2023-01-13T06:18:22.395Z,-13.39
2023-01-13T06:20:25.778Z,-13.33
2023-01-13T06:22:32.990Z,-13.39
2023-01-13T06:24:36.628Z,-13.39
2023-01-13T06:26:41.706Z,-13.49
2023-01-13T06:28:44.423Z,-13.48
2023-01-13T06:30:53.257Z,-13.52
2023-01-13T06:32:59.169Z,-13.40
2023-01-13T06:35:06.979Z,-13.30
2023-01-13T06:37:13.269Z,-13.27
2023-01-13T06:39:20.506Z,-13.32
2023-01-13T06:41:43.793Z,-13.20
2023-01-13T06:43:46.938Z,-13.23
2023-01-13T06:45:54.917Z,-13.28
2023-01-13T06:48:00.205Z,-13.31
2023-01-13T06:50:02.896Z,-13.28
2023-01-13T06:52:06.717Z,-13.30
2023-01-13T06:54:09.484Z,-13.21
2023-01-13T06:56:12.100Z,-13.18
2023-01-13T06:58:14.743Z,-13.09
2023-01-13T07:00:17.913Z,-13.02
2023-01-13T07:02:20.853Z,-12.90
2023-01-13T07:04:23.685Z,-12.97
2023-01-13T07:06:26.352Z,-12.95
2023-01-13T07:08:29.127Z,-13.01
2023-01-13T07:10:33.111Z,-13.05
2023-01-13T07:12:59.436Z,-13.00
2023-01-13T07:15:20.263Z,-12.84
2023-01-13T07:17:25.513Z,-12.84
2023-01-13T07:19:28.269Z,-12.82
2023-01-13T07:21:30.992Z,-12.81
2023-01-13T07:23:38.499Z,-12.71
2023-01-13T07:25:41.176Z,-12.66
2023-01-13T07:27:44.000Z,-12.59
2023-01-13T07:29:46.741Z,-12.44
2023-01-13T07:31:50.357Z,-12.45
2023-01-13T07:33:53.185Z,-12.33
2023-01-13T07:35:58.094Z,-12.27
2023-01-13T07:38:00.803Z,-12.47
2023-01-13T07:40:07.003Z,-12.37
2023-01-13T07:42:28.612Z,-12.37
2023-01-13T07:44:31.340Z,-12.31
2023-01-13T07:46:34.276Z,-12.39
2023-01-13T07:48:36.950Z,-12.30
2023-01-13T07:50:40.176Z,-12.17
2023-01-13T07:52:43.473Z,-12.17
2023-01-13T07:54:46.260Z,-12.16
2023-01-13T07:56:48.927Z,-12.15
2023-01-13T07:58:53.129Z,-12.17
2023-01-13T08:00:56.814Z,-12.24
2023-01-13T08:03:00.844Z,-12.35
2023-01-13T08:05:05.392Z,-12.47
2023-01-13T08:07:08.252Z,-12.36
2023-01-13T08:09:11.010Z,-12.26
2023-01-13T08:11:14.027Z,-12.25
2023-01-13T08:13:18.456Z,-12.19
2023-01-13T08:15:21.218Z,-12.22
2023-01-13T08:17:24.579Z,-12.09
2023-01-13T08:19:27.231Z,-12.10
2023-01-13T08:21:29.881Z,-12.03
2023-01-13T08:23:32.675Z,-12.02
2023-01-13T08:25:35.766Z,-12.01
2023-01-13T08:27:38.742Z,-12.11
2023-01-13T08:29:41.653Z,-12.05
2023-01-13T08:31:44.773Z,-11.92
2023-01-13T08:33:47.702Z,-11.94
2023-01-13T08:35:52.870Z,-12.05
2023-01-13T08:37:55.571Z,-11.89
2023-01-13T08:39:58.281Z,-11.86
2023-01-13T08:42:00.913Z,-11.87
2023-01-13T08:44:04.017Z,-11.77
2023-01-13T08:46:07.147Z,-11.63
2023-01-13T08:48:09.915Z,-11.64
2023-01-13T08:50:12.808Z,-11.75
2023-01-13T08:52:16.513Z,-11.82
2023-01-13T08:54:19.478Z,-11.86
2023-01-13T08:56:22.161Z,-11.87
2023-01-13T08:58:25.492Z,-12.03
2023-01-13T09:00:28.215Z,-12.13
2023-01-13T09:02:31.083Z,-12.16
2023-01-13T09:04:33.848Z,-12.19
2023-01-13T09:06:36.719Z,-12.24
2023-01-13T09:08:39.494Z,-12.31
2023-01-13T09:10:42.440Z,-12.29
2023-01-13T09:13:03.712Z,-12.27
2023-01-13T09:15:06.881Z,-12.33
2023-01-13T09:17:09.634Z,-12.20
2023-01-13T09:19:12.511Z,-12.15
2023-01-13T09:21:15.787Z,-12.24
2023-01-13T09:23:18.457Z,-12.20
2023-01-13T09:25:21.212Z,-12.24
2023-01-13T09:27:24.270Z,-12.20
2023-01-13T09:29:27.021Z,-12.24
2023-01-13T09:31:29.856Z,-12.26
2023-01-13T09:33:58.739Z,-12.23
2023-01-13T09:36:01.495Z,-12.21
2023-01-13T09:38:04.399Z,-12.18
2023-01-13T09:40:17.542Z,-12.19
2023-01-13T09:43:04.873Z,-12.05
2023-01-13T09:45:15.137Z,-12.07
2023-01-13T09:47:31.234Z,-12.00
2023-01-13T09:49:40.315Z,-11.99
2023-01-13T09:51:49.528Z,-12.02
2023-01-13T09:53:57.633Z,-12.06
2023-01-13T09:56:01.066Z,-11.91
2023-01-13T09:58:18.759Z,-11.83
2023-01-13T10:00:24.504Z,-11.77
2023-01-13T10:02:31.364Z,-11.82
2023-01-13T10:04:34.235Z,-11.71
2023-01-13T10:06:43.112Z,-11.66
2023-01-13T10:08:48.429Z,-11.59
2023-01-13T10:10:55.500Z,-11.50
2023-01-13T10:13:17.243Z,-11.50
2023-01-13T10:15:26.475Z,-11.48
2023-01-13T10:17:39.631Z,-11.41
2023-01-13T10:19:49.029Z,-11.39
2023-01-13T10:22:09.248Z,-11.36
2023-01-13T10:24:26.969Z,-11.30
2023-01-13T10:27:03.418Z,-11.40
2023-01-13T10:29:19.752Z,-11.24
2023-01-13T10:31:24.225Z,-11.23
2023-01-13T10:33:28.681Z,-11.13
2023-01-13T10:35:52.187Z,-11.19
2023-01-13T10:37:57.689Z,-11.24
2023-01-13T10:40:03.034Z,-11.27
2023-01-13T10:42:13.988Z,-11.27
2023-01-13T10:44:18.972Z,-11.25
2023-01-13T10:46:21.956Z,-11.36
2023-01-13T10:48:34.065Z,-11.44
2023-01-13T10:50:37.842Z,-11.44
2023-01-13T10:52:55.866Z,-11.39
2023-01-13T10:54:58.979Z,-11.31
2023-01-13T10:57:21.480Z,-11.52
2023-01-13T10:59:29.251Z,-11.62
2023-01-13T11:01:32.318Z,-11.65
2023-01-13T11:03:43.384Z,-11.75
2023-01-13T11:05:58.671Z,-11.70
2023-01-13T11:08:01.580Z,-11.76
2023-01-13T11:10:27.689Z,-11.70
2023-01-13T11:12:35.269Z,-11.72
2023-01-13T11:14:47.330Z,-11.75
2023-01-13T11:16:53.973Z,-11.79
2023-01-13T11:19:14.421Z,-11.82
2023-01-13T11:21:29.600Z,-12.02
2023-01-13T11:23:42.815Z,-12.05
2023-01-13T11:25:50.483Z,-12.07
2023-01-13T11:28:19.990Z,-12.08
2023-01-13T11:31:01.192Z,-12.15
2023-01-13T11:33:15.738Z,-12.17
2023-01-13T11:35:21.182Z,-12.28
2023-01-13T11:37:38.756Z,-12.45
2023-01-13T11:40:12.438Z,-12.53
2023-01-13T11:42:31.746Z,-12.56
2023-01-13T11:44:58.755Z,-12.74
2023-01-13T11:47:02.518Z,-12.80
2023-01-13T11:49:06.458Z,-12.82
2023-01-13T11:51:15.558Z,-12.87
2023-01-13T11:53:21.722Z,-12.93
2023-01-13T11:55:40.651Z,-13.04
2023-01-13T11:58:12.311Z,-13.16
2023-01-13T12:00:33.747Z,-13.16
2023-01-13T12:03:11.330Z,-13.41
2023-01-13T12:05:38.606Z,-13.47
2023-01-13T12:07:52.220Z,-13.50
2023-01-13T12:10:10.364Z,-13.54
2023-01-13T12:12:53.030Z,-13.54
2023-01-13T12:15:24.264Z,-13.70
2023-01-13T12:17:44.587Z,-13.72
2023-01-13T12:19:52.211Z,-13.74
2023-01-13T12:22:07.311Z,-13.65
2023-01-13T12:24:39.249Z,-13.67
2023-01-13T12:26:54.731Z,-13.68
2023-01-13T12:29:06.944Z,-13.70
2023-01-13T12:31:11.418Z,-13.67
2023-01-13T12:33:23.860Z,-13.67
2023-01-13T12:35:42.295Z,-13.56
2023-01-13T12:37:57.509Z,-13.55
2023-01-13T12:40:18.763Z,-13.60
2023-01-13T12:42:45.871Z,-13.57
2023-01-13T12:45:09.878Z,-13.55
2023-01-13T12:47:43.813Z,-13.51
2023-01-13T12:49:47.624Z,-13.55
2023-01-13T12:51:53.098Z,-13.43
2023-01-13T12:53:56.713Z,-13.43
2023-01-13T12:56:22.362Z,-13.44
2023-01-13T12:58:28.841Z,-13.50
2023-01-13T13:00:32.723Z,-13.51
2023-01-13T13:02:41.261Z,-13.44
2023-01-13T13:04:50.112Z,-13.47
2023-01-13T13:07:09.672Z,-13.52
2023-01-13T13:09:27.645Z,-13.54
2023-01-13T13:11:59.422Z,-13.58
2023-01-13T13:14:06.104Z,-13.58
2023-01-13T13:16:30.614Z,-13.73
2023-01-13T13:18:33.692Z,-13.81
2023-01-13T13:20:54.708Z,-13.81
2023-01-13T13:22:57.388Z,-13.85
2023-01-13T13:25:00.029Z,-13.83
2023-01-13T13:27:37.761Z,-13.84
2023-01-13T13:29:44.874Z,-13.88
2023-01-13T13:32:11.331Z,-13.90
2023-01-13T13:34:45.428Z,-13.98
2023-01-13T13:36:49.841Z,-13.96
2023-01-13T13:39:23.530Z,-14.03
2023-01-13T13:41:45.672Z,-14.09
2023-01-13T13:44:07.122Z,-14.14
2023-01-13T13:46:49.008Z,-14.10
2023-01-13T13:48:54.661Z,-14.14
2023-01-13T13:51:02.891Z,-14.21
2023-01-13T13:53:08.591Z,-14.13
2023-01-13T13:55:20.478Z,-14.20
2023-01-13T13:57:40.082Z,-14.10
2023-01-13T13:59:42.857Z,-14.12
2023-01-13T14:01:50.309Z,-14.12
2023-01-13T14:04:33.742Z,-14.19
2023-01-13T14:06:36.894Z,-14.21
2023-01-13T14:08:46.712Z,-14.18
2023-01-13T14:10:49.654Z,-14.26
2023-01-13T14:12:53.020Z,-14.24
2023-01-13T14:14:57.633Z,-14.27
2023-01-13T14:17:00.604Z,-14.42
2023-01-13T14:19:03.292Z,-14.31
2023-01-13T14:21:24.423Z,-14.30
2023-01-13T14:23:30.658Z,-14.32
2023-01-13T14:25:40.212Z,-14.27
2023-01-13T14:27:43.642Z,-14.23
2023-01-13T14:29:46.661Z,-14.22
2023-01-13T14:31:52.417Z,-14.25
2023-01-13T14:33:57.802Z,-14.27
2023-01-13T14:36:15.109Z,-14.28
2023-01-13T14:38:17.835Z,-14.27
2023-01-13T14:40:42.605Z,-14.31
2023-01-13T14:42:46.934Z,-14.31
2023-01-13T14:44:51.501Z,-14.27
2023-01-13T14:46:56.779Z,-14.30
2023-01-13T14:49:02.533Z,-14.28
2023-01-13T14:51:25.920Z,-14.34
2023-01-13T14:53:47.417Z,-14.35
2023-01-13T14:55:50.432Z,-14.38
2023-01-13T14:57:53.315Z,-14.40
2023-01-13T15:00:05.042Z,-14.43
2023-01-13T15:02:45.414Z,-14.42
2023-01-13T15:04:48.106Z,-14.46
2023-01-13T15:06:55.260Z,-14.49
2023-01-13T15:08:57.927Z,-14.49
2023-01-13T15:11:08.602Z,-14.46
2023-01-13T15:13:29.219Z,-14.54
2023-01-13T15:15:34.882Z,-14.50
2023-01-13T15:17:38.782Z,-14.50
2023-01-13T15:19:41.536Z,-14.57
2023-01-13T15:21:46.937Z,-14.57
2023-01-13T15:23:50.136Z,-14.52
2023-01-13T15:25:53.048Z,-14.56
2023-01-13T15:28:00.213Z,-14.57
2023-01-13T15:30:25.703Z,-14.55
2023-01-13T15:32:29.645Z,-14.60
2023-01-13T15:34:32.386Z,-14.53
2023-01-13T15:36:38.484Z,-14.57
2023-01-13T15:38:42.807Z,-14.63
2023-01-13T15:40:46.459Z,-14.59
2023-01-13T15:43:07.438Z,-14.54
2023-01-13T15:45:32.248Z,-14.45
2023-01-13T15:47:35.352Z,-14.34
2023-01-13T15:49:44.531Z,-14.28
2023-01-13T15:51:49.103Z,-14.19
2023-01-13T15:53:52.185Z,-14.14
2023-01-13T15:55:58.252Z,-14.10
2023-01-13T15:58:02.231Z,-14.05
2023-01-13T16:00:13.385Z,-13.99
2023-01-13T16:02:18.445Z,-13.88
2023-01-13T16:04:21.078Z,-13.90
2023-01-13T16:06:29.997Z,-13.95
2023-01-13T16:08:34.414Z,-13.86
2023-01-13T16:10:37.047Z,-13.82
2023-01-13T16:12:39.700Z,-13.78
2023-01-13T16:14:42.399Z,-13.75
2023-01-13T16:16:45.095Z,-13.70
2023-01-13T16:18:48.271Z,-13.67
2023-01-13T16:20:55.399Z,-13.68
2023-01-13T16:22:58.036Z,-13.70
2023-01-13T16:25:00.672Z,-13.71
2023-01-13T16:27:16.102Z,-13.72
2023-01-13T16:29:18.879Z,-13.70
2023-01-13T16:31:29.280Z,-13.66
2023-01-13T16:33:31.987Z,-13.70
2023-01-13T16:35:35.491Z,-13.67
2023-01-13T16:37:49.781Z,-13.66
2023-01-13T16:39:53.424Z,-13.67
2023-01-13T16:41:56.769Z,-13.71
2023-01-13T16:44:06.195Z,-13.62
2023-01-13T16:46:38.245Z,-13.60
2023-01-13T16:48:40.868Z,-13.58
2023-01-13T16:50:43.499Z,-13.54
2023-01-13T16:52:46.233Z,-13.52
2023-01-13T16:54:48.901Z,-13.56
2023-01-13T16:56:51.563Z,-13.57
2023-01-13T16:58:56.961Z,-13.62
2023-01-13T17:00:59.750Z,-13.53
2023-01-13T17:03:03.013Z,-13.58
2023-01-13T17:05:06.585Z,-13.52
2023-01-13T17:07:11.040Z,-13.43
2023-01-13T17:09:22.717Z,-13.39
2023-01-13T17:11:25.420Z,-13.46
2023-01-13T17:13:28.049Z,-13.34
2023-01-13T17:15:30.726Z,-13.35
2023-01-13T17:17:34.018Z,-13.25
2023-01-13T17:19:36.605Z,-13.24
2023-01-13T17:21:39.239Z,-13.25
2023-01-13T17:23:42.307Z,-13.20
2023-01-13T17:25:44.887Z,-13.15
2023-01-13T17:27:47.754Z,-13.10
2023-01-13T17:29:50.830Z,-13.20
2023-01-13T17:31:53.715Z,-13.15
2023-01-13T17:33:56.481Z,-13.12
2023-01-13T17:35:59.107Z,-13.12
2023-01-13T17:38:02.293Z,-13.17
2023-01-13T17:40:05.542Z,-13.15
2023-01-13T17:42:08.106Z,-13.12
2023-01-13T17:44:45.088Z,-13.18
2023-01-13T17:46:57.632Z,-13.18
2023-01-13T17:49:00.295Z,-13.28
2023-01-13T17:51:03.775Z,-13.32
2023-01-13T17:53:06.490Z,-13.31
2023-01-13T17:55:09.423Z,-13.24
2023-01-13T17:57:11.978Z,-13.27
2023-01-13T17:59:17.395Z,-13.28
2023-01-13T18:01:22.287Z,-13.28
2023-01-13T18:03:24.977Z,-13.29
2023-01-13T18:05:28.144Z,-13.24
2023-01-13T18:07:30.861Z,-13.27
2023-01-13T18:09:33.668Z,-13.23
2023-01-13T18:11:36.634Z,-13.22
2023-01-13T18:13:43.515Z,-13.23
2023-01-13T18:15:46.305Z,-13.18
2023-01-13T18:17:48.937Z,-13.13
2023-01-13T18:20:10.336Z,-13.11
2023-01-13T18:22:46.202Z,-13.14
2023-01-13T18:25:07.321Z,-13.10
2023-01-13T18:27:24.722Z,-13.11
2023-01-13T18:29:27.554Z,-13.13
2023-01-13T18:31:30.387Z,-13.10
2023-01-13T18:33:32.980Z,-13.08
2023-01-13T18:35:40.175Z,-13.04
2023-01-13T18:37:43.177Z,-13.06
2023-01-13T18:39:45.925Z,-13.00
2023-01-13T18:42:07.182Z,-13.01
2023-01-13T18:44:09.856Z,-12.96
2023-01-13T18:46:12.595Z,-12.94
2023-01-13T18:48:16.328Z,-13.02
2023-01-13T18:50:19.210Z,-13.00
2023-01-13T18:52:24.178Z,-12.92
2023-01-13T18:54:27.023Z,-12.98
2023-01-13T18:56:31.361Z,-12.91
2023-01-13T18:58:34.030Z,-12.84
2023-01-13T19:00:37.918Z,-12.89
2023-01-13T19:02:41.132Z,-12.89
2023-01-13T19:04:44.221Z,-12.86
2023-01-13T19:06:50.554Z,-12.90
2023-01-13T19:08:56.371Z,-12.84
2023-01-13T19:11:07.129Z,-12.93
2023-01-13T19:13:09.745Z,-12.82
2023-01-13T19:15:12.618Z,-12.77
2023-01-13T19:17:16.330Z,-12.71
2023-01-13T19:19:18.999Z,-12.71
2023-01-13T19:21:21.803Z,-12.73
2023-01-13T19:23:24.555Z,-12.80
2023-01-13T19:25:27.439Z,-12.78
2023-01-13T19:27:30.682Z,-12.77
2023-01-13T19:29:33.992Z,-12.70
2023-01-13T19:31:37.133Z,-12.72
2023-01-13T19:33:40.839Z,-12.71
2023-01-13T19:35:43.823Z,-12.75
2023-01-13T19:37:47.015Z,-12.75
2023-01-13T19:39:49.741Z,-12.75
2023-01-13T19:42:28.381Z,-12.70
2023-01-13T19:44:49.650Z,-12.65
2023-01-13T19:46:52.217Z,-12.65
2023-01-13T19:48:54.850Z,-12.66
2023-01-13T19:50:59.405Z,-12.65
2023-01-13T19:53:02.051Z,-12.66
2023-01-13T19:55:05.088Z,-12.72
2023-01-13T19:57:08.030Z,-12.72
2023-01-13T19:59:13.595Z,-12.73
2023-01-13T20:01:16.435Z,-12.73
2023-01-13T20:03:23.897Z,-12.76
2023-01-13T20:05:27.535Z,-12.80
2023-01-13T20:07:31.571Z,-12.82
2023-01-13T20:09:36.314Z,-12.86
2023-01-13T20:11:39.230Z,-12.83
2023-01-13T20:13:41.782Z,-12.84
2023-01-13T20:15:44.599Z,-12.86
2023-01-13T20:17:47.754Z,-12.89
2023-01-13T20:19:50.373Z,-12.85
2023-01-13T20:21:53.050Z,-12.88
2023-01-13T20:23:56.933Z,-12.88
2023-01-13T20:26:00.356Z,-12.88
2023-01-13T20:28:03.124Z,-12.96
2023-01-13T20:30:09.694Z,-12.92
2023-01-13T20:32:12.623Z,-12.91
2023-01-13T20:34:16.135Z,-12.88
2023-01-13T20:36:39.607Z,-12.91
2023-01-13T20:38:42.244Z,-12.92
2023-01-13T20:40:44.910Z,-12.95
2023-01-13T20:42:47.653Z,-12.98
2023-01-13T20:44:50.410Z,-12.95
2023-01-13T20:46:54.775Z,-12.93
2023-01-13T20:48:57.524Z,-12.93
2023-01-13T20:51:00.819Z,-12.94
2023-01-13T20:53:03.490Z,-12.94
2023-01-13T20:55:07.808Z,-12.96
2023-01-13T20:57:11.243Z,-12.92
2023-01-13T20:59:14.200Z,-12.94
2023-01-13T21:01:16.888Z,-12.94
2023-01-13T21:03:19.683Z,-12.93
2023-01-13T21:05:22.409Z,-12.88
2023-01-13T21:07:25.203Z,-12.93
2023-01-13T21:09:28.027Z,-12.92
2023-01-13T21:11:49.352Z,-12.89
2023-01-13T21:14:10.676Z,-12.90
2023-01-13T21:16:13.418Z,-12.96
2023-01-13T21:18:34.854Z,-12.90
2023-01-13T21:20:39.417Z,-12.89
2023-01-13T21:22:46.998Z,-12.94
2023-01-13T21:24:49.763Z,-12.94
2023-01-13T21:27:01.299Z,-12.86
2023-01-13T21:29:04.526Z,-12.89
2023-01-13T21:31:09.413Z,-12.94
2023-01-13T21:33:15.306Z,-12.91
2023-01-13T21:35:17.913Z,-12.92
2023-01-13T21:37:20.853Z,-12.95
2023-01-13T21:39:23.466Z,-12.98
2023-01-13T21:41:45.372Z,-12.99
2023-01-13T21:44:06.813Z,-13.02
2023-01-13T21:46:37.067Z,-12.95
2023-01-13T21:48:39.811Z,-12.97
2023-01-13T21:50:42.440Z,-12.92
2023-01-13T21:52:45.981Z,-12.86
2023-01-13T21:55:07.129Z,-12.84
2023-01-13T21:57:09.735Z,-12.84
2023-01-13T21:59:12.389Z,-12.82
2023-01-13T22:01:25.347Z,-12.83
2023-01-13T22:03:28.005Z,-12.87
2023-01-13T22:05:30.779Z,-12.81
2023-01-13T22:07:35.091Z,-12.86
2023-01-13T22:09:37.799Z,-12.81
2023-01-13T22:11:40.529Z,-12.79
2023-01-13T22:14:01.640Z,-12.80
2023-01-13T22:16:04.962Z,-12.78
2023-01-13T22:18:07.628Z,-12.78
2023-01-13T22:20:12.294Z,-12.77
2023-01-13T22:22:18.749Z,-12.78
2023-01-13T22:24:21.539Z,-12.72
2023-01-13T22:26:24.117Z,-12.68
2023-01-13T22:28:34.191Z,-12.68
2023-01-13T22:30:36.931Z,-12.66
2023-01-13T22:32:40.250Z,-12.70
2023-01-13T22:34:43.414Z,-12.68
2023-01-13T22:36:46.035Z,-12.65
2023-01-13T22:38:48.713Z,-12.69
2023-01-13T22:40:58.848Z,-12.67
2023-01-13T22:43:01.543Z,-12.58
2023-01-13T22:45:05.655Z,-12.65
2023-01-13T22:47:09.915Z,-12.62
2023-01-13T22:49:12.874Z,-12.53
2023-01-13T22:51:18.818Z,-12.50
2023-01-13T22:53:22.249Z,-12.42
2023-01-13T22:55:24.969Z,-12.41
2023-01-13T22:57:36.107Z,-12.42
2023-01-13T22:59:41.402Z,-12.42
2023-01-13T23:01:44.150Z,-12.40
2023-01-13T23:03:50.019Z,-12.43
2023-01-13T23:05:56.761Z,-12.35
2023-01-13T23:07:59.335Z,-12.36
2023-01-13T23:10:02.644Z,-12.27
2023-01-13T23:12:06.197Z,-12.24
2023-01-13T23:14:11.643Z,-12.27
2023-01-13T23:16:17.148Z,-12.23
2023-01-13T23:18:19.819Z,-12.25
2023-01-13T23:20:22.836Z,-12.22
2023-01-13T23:22:25.587Z,-12.18
2023-01-13T23:24:29.439Z,-12.19
2023-01-13T23:26:33.217Z,-12.13
2023-01-13T23:28:37.860Z,-12.16
2023-01-13T23:30:40.634Z,-12.15
2023-01-13T23:32:43.245Z,-12.14
2023-01-13T23:34:46.046Z,-12.18
2023-01-13T23:36:48.761Z,-12.17
2023-01-13T23:38:52.119Z,-12.13
2023-01-13T23:40:54.961Z,-12.13
2023-01-13T23:42:57.550Z,-12.13
2023-01-13T23:45:00.165Z,-12.15
2023-01-13T23:47:02.822Z,-12.08
2023-01-13T23:49:05.474Z,-12.05
2023-01-13T23:51:11.353Z,-12.01
2023-01-13T23:53:13.985Z,-12.03
2023-01-13T23:55:16.667Z,-12.06
2023-01-13T23:57:19.324Z,-12.02
2023-01-13T23:59:22.146Z,-12.01
